Thursday, September 20, 2018, 12:38 PM EDT
Back to Local

KPQI, Presque Isle

Location: Presque Isle, ME, United States Lat: 46.683
Local Time: 12:38 PM EDT (16:38 GMT) Lon: -68.05
Time Zone: US/Eastern Elev: 534 ft

Show me the last for .
Show Decoded

2018-09-20 11:56 METAR KPQI 201556Z AUTO 17009KT 10SM BKN022 OVC029 12/07 A3029 RMK AO2 SLP305
                 T01170072 =
2018-09-20 10:56 METAR KPQI 201456Z AUTO VRB05KT 10SM OVC022 11/07 A3030 RMK AO2 RAE22 SLP307
                 P0000 60000 T01110072 58002 =
2018-09-20 10:14 METAR KPQI 201414Z AUTO VRB04KT 8SM -RA BKN022 OVC035 10/08 A3030 RMK AO2 P0000
                 =
2018-09-20 09:56 METAR KPQI 201356Z AUTO 09003KT 10SM -RA BKN032 OVC043 09/07 A3031 RMK AO2 RAB16
                 SLP312 P0000 T00940072 =
2018-09-20 09:53 METAR KPQI 201353Z AUTO 00000KT 8SM -RA FEW015 OVC035 09/07 A3031 RMK AO2 RAB16
                 P0000 =
2018-09-20 08:56 METAR KPQI 201256Z AUTO 00000KT 10SM FEW015 BKN029 OVC050 09/07 A3030 RMK AO2
                 SLP309 T00940067 =
2018-09-20 08:23 METAR KPQI 201223Z AUTO 03003KT 10SM BKN029 OVC060 09/07 A3030 RMK AO2 =
2018-09-20 08:15 METAR KPQI 201215Z AUTO 00000KT 10SM SCT029 BKN035 OVC055 09/07 A3029 RMK AO2 =
2018-09-20 08:03 METAR KPQI 201203Z AUTO 04003KT 10SM BKN029 BKN035 OVC060 09/07 A3028 RMK AO2 =
2018-09-20 07:56 METAR KPQI 201156Z AUTO 00000KT 10SM SCT029 BKN035 OVC060 09/06 A3029 RMK AO2
                 SLP303 70001 T00890061 10089 20078 53013 =
2018-09-20 07:46 METAR KPQI 201146Z AUTO 03003KT 10SM SCT029 OVC060 08/07 A3028 RMK AO2 =
2018-09-20 07:33 METAR KPQI 201133Z AUTO 02003KT 10SM BKN029 OVC060 08/06 A3028 RMK AO2 =
2018-09-20 06:56 METAR KPQI 201056Z AUTO 00000KT 10SM BKN031 OVC060 08/06 A3027 RMK AO2 SLP297
                 T00780061 =
2018-09-20 05:56 METAR KPQI 200956Z AUTO 00000KT 10SM BKN031 BKN048 OVC055 08/06 A3026 RMK AO2
                 SLP293 T00780061 =
2018-09-20 04:56 METAR KPQI 200856Z AUTO 00000KT 10SM OVC060 08/06 A3025 RMK AO2 SLP289 T00780061
                 51004 =
2018-09-20 03:56 METAR KPQI 200756Z AUTO 00000KT 10SM OVC060 08/06 A3025 RMK AO2 SLP288 T00830061
                 =
2018-09-20 02:56 METAR KPQI 200656Z AUTO 06003KT 10SM OVC060 08/06 A3024 RMK AO2 SLP287 T00830061
                 =
2018-09-20 01:56 METAR KPQI 200556Z AUTO 09003KT 10SM OVC060 08/06 A3023 RMK AO2 SLP284 T00830056
                 10106 20078 53005 =
2018-09-20 00:56 METAR KPQI 200456Z AUTO 07003KT 10SM OVC060 08/06 A3023 RMK AO2 SLP282 T00830056
                 401390078 =
2018-09-19 23:56 METAR KPQI 200356Z AUTO 07003KT 10SM OVC060 08/05 A3022 RMK AO2 SLP279 T00780050
                 =
2018-09-19 22:56 METAR KPQI 200256Z AUTO 08005KT 10SM SCT036 OVC065 09/06 A3022 RMK AO2 SLP280
                 T00890056 51016 =
2018-09-19 21:56 METAR KPQI 200156Z AUTO 09004KT 10SM BKN032 OVC060 10/06 A3020 RMK AO2 SLP275
                 T01000061 =
2018-09-19 21:04 METAR KPQI 200104Z AUTO 08006KT 10SM OVC030 10/07 A3019 RMK AO2 =
2018-09-19 20:56 METAR KPQI 200056Z AUTO 08008KT 10SM OVC028 10/07 A3019 RMK AO2 SLP270 T01000067
                 =
2018-09-19 19:56 METAR KPQI 192356Z AUTO 08010KT 10SM OVC024 11/08 A3017 RMK AO2 RAB01E20 SLP265
                 P0000 60001 T01060078 10139 20106 51020 =
2018-09-19 18:56 METAR KPQI 192256Z AUTO 36007KT 8SM BKN020 OVC026 11/10 A3015 RMK AO2 RAB04E28
                 SLP257 P0000 T01110100 =
2018-09-19 18:08 METAR KPQI 192208Z AUTO 02007KT 6SM -RA BR FEW011 SCT018 OVC028 11/10 A3014 RMK
                 AO2 RAB04 P0000 =
2018-09-19 17:56 METAR KPQI 192156Z AUTO 01006KT 10SM SCT010 SCT023 OVC030 12/11 A3014 RMK AO2
                 RAE50 SLP252 P0001 T01170106 =
2018-09-19 17:50 METAR KPQI 192150Z AUTO 01005KT 10SM SCT010 SCT023 OVC030 12/11 A3014 RMK AO2
                 RAE50 P0001 =
2018-09-19 17:44 METAR KPQI 192144Z AUTO 02004KT 10SM -RA BKN010 BKN019 OVC026 12/11 A3013 RMK
                 AO2 CIG 009V013 P0001 =
2018-09-19 17:31 METAR KPQI 192131Z AUTO 04008KT 6SM -RA BR FEW012 BKN026 OVC038 12/11 A3013 RMK
                 AO2 P0001 =
2018-09-19 17:00 METAR KPQI 192100Z AUTO 36007KT 2 1/2SM -RA BR SCT018 BKN030 OVC036 12/11 A3011
                 RMK AO2 VIS 1 3/4V5 P0000 =
2018-09-19 16:56 METAR KPQI 192056Z AUTO 01008KT 3SM -RA BR SCT018 BKN026 OVC034 12/11 A3011 RMK
                 AO2 RAB25 SLP243 P0000 60000 T01170106 53010 =
2018-09-19 16:21 METAR KPQI 192021Z AUTO 04007KT 10SM BKN020 OVC060 13/09 A3010 RMK AO2 =
2018-09-19 15:56 METAR KPQI 191956Z AUTO 36007KT 10SM FEW032 BKN041 OVC055 14/09 A3009 RMK AO2
                 SLP234 T01390094 =
2018-09-19 15:23 METAR KPQI 191923Z AUTO 36009KT 10SM BKN030 OVC041 13/10 A3009 RMK AO2 =
2018-09-19 14:56 METAR KPQI 191856Z AUTO 02011KT 10SM OVC026 13/09 A3009 RMK AO2 RAB08E19 SLP234
                 P0000 T01330089 =
2018-09-19 13:56 METAR KPQI 191756Z AUTO 02004KT 10SM OVC024 13/08 A3008 RMK AO2 SLP232 T01330083
                 10133 20083 53002 =
2018-09-19 12:56 METAR KPQI 191656Z AUTO 05008KT 10SM OVC022 13/08 A3008 RMK AO2 SLP230 T01330083
                 =

Support USWX by starting your Amazon purchase here.